Aeroporto :
LOGIN :

Iscrizione | Disclaimer

   EN    FR    IT 

 










Sommario :    VFR   VFR Marginale   IFR   IFR Intensivo   IFR Molto Intensivo
Visibilità : 
Base nubi : 
>= 8 km
>= 3000ft
5 / 8 km
1000 / 3000 ft
1500m / 5 km
500 / 1000 ft
800 / 1500m
200 / 500 ft
< 800m
< 200 ft
Simboli :   Temporali  Nebbia  Neve Forte  Precipitazioni Forti  Vento > 20 kt
SIGMETs :   Varie  Temporali  Ghiacco  Turbolenza  Onda orograficha  Ceneri Vulcaniche






- Altitudine del aeroporto : 20 ft
- Codice IATA : LSI


EGPB - Sumburgh

ULTIMO METAR :
  • 291620Z 18004KT 9999 FEW010 12/10 Q1012 NOSIG

METARs OBSOLETI :
  • 291550Z 21005KT 9999 FEW010 12/09 Q1012 NOSIG
  • 291520Z 22004KT 9999 FEW010 12/10 Q1012 NOSIG
  • 291450Z 21005KT 9999 FEW010 12/10 Q1013 NOSIG
  • 291420Z 23005KT 9999 FEW009 12/10 Q1013
  • 291350Z 24005KT 9999 FEW009 13/10 Q1013

TAF TAF EGPB
Valido dal 29 a 15 ore il 30 a 00 ore UTC


291359Z 2915/2924 24006KT 9999 FEW012
BECMG 2915/2918 17012KT
PROB30
TEMPO 2915/2924 BKN012



MetMap, La meteo Aeronautica in un colpo d'occhio ! - Copyright ORBIFLY Dicembre 2007 - Disclaimer

ORBIFLY MET'MAP TEAM :

Programmazione e sviluppo : Alexandra Zaïnal
Concezione : Baudouin d'Aumeries
Aiuto per la programmazione : Marc-Olivier Méhu
Supporto tecnico e logistico : Manuel Goepfert
Aiuto per la traduzione : Arnaldo La Scala

Contatto : metmap@orbifly.com




FONTI E CREDITI :

   NOAA